This is the latest recevied weather packets stored in our database for station/object K4CRS-13. If no packets are shown the sender has not sent any weather packets the latest 10 day(s).
| Time | Temp. | Humidity | Pressure | Rain* | Wind** | Luminosity | Snow |
|---|---|---|---|---|---|---|---|
| 1788039301 | 33.33° C | 47% | 1052.5 hPa | 0 mm | - | 435 W/m² | - |
| 1788038996 | 33.89° C | 48% | 1052.5 hPa | 0 mm | - | 449 W/m² | - |
| 1788038692 | 33.89° C | 48% | 1052.9 hPa | 0 mm | - | 439 W/m² | - |
| 1788038391 | 33.33° C | 46% | 1052.5 hPa | 0 mm | - | 473 W/m² | - |
| 1788038086 | 33.33° C | 46% | 1052.6 hPa | 0 mm | - | 475 W/m² | - |
| 1788037786 | 33.89° C | 46% | 1052.4 hPa | 0 mm | - | 494 W/m² | - |
| 1788037481 | 34.44° C | 45% | 1052.8 hPa | 0 mm | - | 499 W/m² | - |
| 1788037181 | 35.56° C | 43% | 1052.6 hPa | 0 mm | - | 498 W/m² | - |
| 1788036880 | 34.44° C | 48% | 1052.6 hPa | 0 mm | - | 520 W/m² | - |
| 1788036577 | 35.56° C | 45% | 1052.9 hPa | 0 mm | - | 529 W/m² | - |
| 1788036272 | 34.44° C | 46% | 1052.9 hPa | 0 mm | - | 554 W/m² | - |
| 1788035967 | 33.33° C | 48% | 1052.8 hPa | 0 mm | - | 580 W/m² | - |
| 1788035667 | 33.89° C | 46% | 1052.8 hPa | 0 mm | - | 573 W/m² | - |
| 1788035362 | 33.33° C | 48% | 1053.1 hPa | 0 mm | - | 552 W/m² | - |
| 1788035058 | 32.78° C | 48% | 1053 hPa | 0 mm | - | 550 W/m² | - |
| 1788034754 | 33.89° C | 48% | 1053.2 hPa | 0 mm | - | 135 W/m² | - |
| 1788034450 | 33.89° C | 45% | 1052.9 hPa | 0 mm | - | 220 W/m² | - |
| 1788034146 | 35° C | 45% | 1053.2 hPa | 0 mm | - | 697 W/m² | - |
| 1788033844 | 35° C | 45% | 1053.4 hPa | 0 mm | - | 696 W/m² | - |
| 1788033539 | 33.89° C | 49% | 1053.3 hPa | 0 mm | - | 689 W/m² | - |
| 1788033234 | 32.78° C | 47% | 1053.2 hPa | 0 mm | - | 726 W/m² | - |
| 1788032930 | 31.67° C | 53% | 1053.5 hPa | 0 mm | - | 727 W/m² | - |
| 1788032629 | 31.67° C | 50% | 1053.5 hPa | 0 mm | - | 167 W/m² | - |
| 1788032325 | 31.67° C | 52% | 1053.5 hPa | 0 mm | - | 740 W/m² | - |
| 1788032020 | 32.22° C | 49% | 1053.3 hPa | 0 mm | - | 163 W/m² | - |
* Rain latest hour (hover to see other rain measurements)
** Current wind speed in m/s (hover to see current wind gust speed)